Tiempo atmosférico en la estación meteorológica de Valladolid, Valladolid (735 m.)



Fecha
DESCASC
Temp. máxima en grados centígrados (hora)
DESCASC
Temp. mínima en grados centígrados (hora)
DESCASC
Temp. media en grados centígrados
DESCASC
Racha de viento máxima en m/sg (hora)
DESCASC
Velocidad máxima media en intervalos de 10 minutos(hora)
DESCASC
Precipitaciones diarias en mm
DESCASC
Precipitaciones de 00:00 a 06:00 en mm
DESCASC
Precipitaciones de 06:00 a 12:00 en mm
DESCASC
Precipitaciones de 12:00 a 18:00 en mm
DESCASC
Precipitaciones de 18:00 a 24:00 en mm
DESCASC
08-12-2019 9.3 (19:30) 1.3 (07:20) 5.3 5.28 (09:20) 2.5 (09:20) 1 0 0 1 0
07-12-2019 10 (14:50) 1.6 (07:00) 5.8 3.33 (18:00) 2.22 (17:10) 0 0 0 0 0
06-12-2019 12.5 (15:10) 0.9 (08:40) 6.7 5.83 (01:20) 1.67 (00:40) 0 0 0 0 0
05-12-2019 11.2 (15:10) 4.4 (00:00) 7.8 11.39 (12:00) 4.17 (11:20) 0 0 0 0 0
04-12-2019 9.5 (14:40) -0.2 (07:50) 4.6 7.5 (22:30) 2.22 (21:20) 0 0 0 0 0
03-12-2019 7.7 (15:00) 0.5 (00:00) 4.1 8.33 (11:40) 3.89 (11:40) 0 0 0 0 0
02-12-2019 9.6 (15:00) 2.3 (00:00) 6 12.78 (12:50) 4.17 (12:00) 0 0 0 0 0
01-12-2019 6.9 (15:40) 5.3 (00:00) 6.1 6.39 (23:50) 2.5 (13:10) 7.2 0.4 5 1.8 0
30-11-2019 13.6 (12:40) 5.7 (00:00) 9.7 11.39 (14:10) 5 (13:40) 5.8 0.4 0.2 5.2 0
29-11-2019 14.5 (15:50) 10.8 (00:00) 12.7 6.67 (01:00) 3.61 (14:20) 6.2 2.8 0.8 0 2.6
28-11-2019 13 (15:30) 9 (00:40) 11 10.56 (15:40) 4.44 (15:40) 1.2 0 0 0 1.2
27-11-2019 11.4 (13:30) 7.5 (00:00) 9.4 15.56 (00:30) 7.78 (00:30) 0 0 0 0 0
26-11-2019 15.4 (15:00) 9 (00:00) 12.2 15.56 (16:20) 7.22 (22:50) 3.4 0 1 0.8 1.6
25-11-2019 13.5 (15:00) 8.1 (00:00) 10.8 10.56 (14:40) 5.56 (14:10) 2.6 2.4 0.2 0 0
24-11-2019 8.9 (16:00) 3.4 (00:00) 6.1 8.06 (01:30) 4.17 (08:10) 0.6 0 0 0 0.6
23-11-2019 10.9 (15:00) 4.2 (00:00) 7.5 16.94 (01:30) 8.33 (01:30) 0 0 0 0 0
22-11-2019 12.6 (14:50) 5.7 (00:00) 9.2 15 (17:20) 8.06 (17:10) 15.8 0.8 6.6 8.4 0
21-11-2019 10.4 (15:50) 4.4 (00:00) 7.4 7.5 (13:10) 4.17 (13:10) 0.4 0 0.2 0 0.2
20-11-2019 7 (13:40) 4.2 (09:00) 5.6 7.22 (14:00) 2.5 (14:30) 5.2 0 1.6 3.2 0.4
19-11-2019 7.6 (16:00) -1.1 (-00:0) 3.2 3.89 (14:00) 2.22 (13:40) 0 0 0 0 0
18-11-2019 9.4 (14:10) 0.6 (00:00) 5 7.78 (03:20) 3.61 (03:20) 0 0 0 0 0
17-11-2019 10.1 (16:00) 2.7 (00:00) 6.4 10 (15:50) 5 (13:30) 1.2 0 1.2 0 0
16-11-2019 9.4 (15:30) -0.6 (-00:0) 4.4 7.5 (14:50) 3.89 (14:50) 0 0 0 0 0
15-11-2019 8.6 (14:30) 2.3 (00:00) 5.5 10.28 (00:50) 5 (13:20) 0 0 0 0 0
14-11-2019 8.2 (00:00) 2.9 (00:00) 5.5 14.17 (13:00) 7.5 (15:40) 4.2 2.6 0 1.6 0
13-11-2019 14.1 (15:00) 8.2 (00:00) 11.2 14.44 (03:10) 7.5 (23:00) 3.8 3.8 0 0 0
12-11-2019 10.9 (15:20) 2.8 (00:00) 6.8 8.61 (13:40) 4.17 (13:40) 3 0 0 0 3
11-11-2019 12.9 (15:10) 3.3 (23:59) 8.1 9.44 (17:00) 5 (17:00) 0 0 0 0 0

Gráficas

Temp. máximas Temp. mínimas Temp. medias Precipitaciones Rachas de viento máximas Velocidades máximas media en intervalos de 10 minutos

Datos horarios

Fecha y hora oficial Temperatura (ºC) Velocidad del viento (km/h) Dirección del viento Racha (km/h) Dirección de racha Precipitación (mm) Presión (hPa) Tendencia (hPa) Humedad (%)
2019-12-10 23:00:00 3.1 4 Sudoeste 15 Sur 0 938.6 -1.3 99
2019-12-10 22:00:00 3 4 Sur 13 Sur 0 938.6 -1.2 100
2019-12-10 21:00:00 3.3 3 Sur 6 Sur 0 939.4 -0.4 99
2019-12-10 20:00:00 3.3 2 Noroeste 4 Sudeste 0 939.9 -0.2 99
2019-12-10 19:00:00 3.4 0 Calma 4 Oeste 0 939.8 -0.8 98
2019-12-10 18:00:00 3.8 4 Sudeste 7 Sudeste 0 939.8 -1.5 97
2019-12-10 17:00:00 4.1 5 Sudeste 9 Sudeste 0 940.1 -2.1 97
2019-12-10 16:00:00 3.9 4 Sudoeste 9 Sudeste 0 940.6 -2.5 98
2019-12-10 15:00:00 3.5 5 Sur 9 Sur 0 941.3 -2.6 98
2019-12-10 14:00:00 3.1 4 Sudoeste 8 Sudoeste 0 942.2 -1.9 99
2019-12-10 13:00:00 2.4 5 Sudeste 9 Sudeste 0 943.1 -1.1 100
2019-12-10 12:00:00 1.6 2 Oeste 8 Sudeste 0 943.9 0 100
2019-12-10 11:00:00 1.2 0 Calma 6 Noroeste 0 944.1 0.3 100
2019-12-10 10:00:00 0.5 3 Noroeste 7 Noroeste 0 944.2 0.3 100
2019-12-10 09:00:00 0.3 2 Noroeste 6 Norte 0 943.9 -0.2 100
2019-12-10 08:00:00 0.3 3 Este 7 Sudeste 0 943.8 -0.7 100
2019-12-10 07:00:00 0.4 3 Noroeste 6 Oeste 0 943.9 -0.9 100
2019-12-10 06:00:00 0.8 2 Noroeste 5 Noroeste 0 944.1 -1 100
2019-12-10 05:00:00 1.1 0 Calma 8 Este 0 944.5 -0.8 100
2019-12-10 04:00:00 1 3 Noroeste 7 Noroeste 0 944.8 -0.6 100
2019-12-10 03:00:00 1.3 3 Noroeste 7 Norte 0 945.1 -0.4 99
2019-12-10 02:00:00 1.3 2 Nordeste 5 Noroeste 0 945.3 -0.2 99
2019-12-10 01:00:00 1.8 3 Noroeste 5 Este 0 945.4 0.3 98
2019-12-10 00:00:00 2.2 2 Noroeste 4 Noroeste 0 945.5 0.2 98
2019-12-09 23:00:00 2.7 2 Nordeste 6 Oeste 0 945.5 0.8 98
2019-12-09 22:00:00 3.2 0 Calma 6 Oeste 0 945.1 0.9 97
2019-12-09 21:00:00 3.8 3 Norte 8 Oeste 0 945.3 1.5 96
2019-12-09 20:00:00 4.3 5 Oeste 7 Oeste 0 944.7 1.2 95
2019-12-09 19:00:00 5.3 4 Oeste 7 Sudeste 0 944.2 0.9 92
2019-12-09 18:00:00 6.6 4 Sur 8 Sudeste 0 943.8 0.5 87
2019-12-09 17:00:00 7.9 4 Sudoeste 9 Sudoeste 0 943.5 0.3 82
2019-12-09 16:00:00 8.6 4 Sudoeste 9 Oeste 0 943.3 -0.5 79
2019-12-09 15:00:00 8.6 5 Sur 10 Sudoeste 0 943.3 -0.6 79
2019-12-09 14:00:00 8.7 5 Sur 11 Sur 0 943.2 -0.5 79
2019-12-09 13:00:00 7 4 Sudoeste 13 Sudoeste 0 943.8 0.6 84
2019-12-09 12:00:00 5.2 3 Sur 23 Sudoeste 0 943.9 0.8 91
2019-12-09 11:00:00 5.1 9 Sudoeste 20 Sudoeste 0 943.7 0.8 94
2019-12-09 10:00:00 4.9 5 Sudoeste 23 Sudoeste 0 943.2 0.8 95
2019-12-09 09:00:00 4.4 5 Sur 16 Sur 0 943.1 1.1 97
2019-12-09 08:00:00 4.7 6 Oeste 12 Oeste 0 942.9 0.9 96
2019-12-09 07:00:00 5.2 6 Oeste 15 Sudoeste 0 942.4 0.2 97
2019-12-09 06:00:00 5.6 12 Oeste 21 Sudoeste 0 942 0.2 95
2019-12-09 05:00:00 5.9 7 Oeste 14 Sudoeste 0 942 0.3 97
2019-12-09 04:00:00 6.7 6 Oeste 13 Sudoeste 0 942.2 0.3 96
2019-12-09 03:00:00 6.5 6 Oeste 13 Oeste 0 941.8 0.5 97
2019-12-09 02:00:00 7 4 Sudoeste 13 Sudoeste 0 941.7 1.2 96
2019-12-09 01:00:00 7.4 5 Noroeste 18 Oeste 0 941.9 1.5 97
2019-12-09 00:00:00 8.1 5 Noroeste 13 Noroeste 0 941.3 1 96
2019-12-08 23:00:00 8.7 4 Noroeste 10 Noroeste 0 940.5 0.7 98
2019-12-08 22:00:00 9.2 3 Noroeste 14 Noroeste 0 940.4 1.5 99
2019-12-08 21:00:00 9.3 3 Oeste 8 Noroeste 0 940.3 1.8 99
2019-12-08 20:00:00 9.3 5 Oeste 14 Oeste 0 939.8 1.7 99
2019-12-08 19:00:00 9 5 Oeste 14 Oeste 0 938.9 0.7 99
2019-12-08 18:00:00 8.3 3 Sur 10 Sudoeste 0 938.5 0.4 98
2019-12-08 17:00:00 8.6 8 Sudoeste 17 Oeste 0.2 938.1 -0.1 99
2019-12-08 16:00:00 7.7 6 Sudoeste 14 Sudoeste 0 938.2 -1.2 98
2019-12-08 15:00:00 7.1 5 Sur 13 Sudoeste 0.2 938.1 -1.2 98
2019-12-08 14:00:00 6.5 6 Sur 13 Sur 0.6 938.2 -1.2 97
2019-12-08 13:00:00 6.1 4 Sudoeste 8 Sudoeste 0 939.4 0.2 92
2019-12-08 12:00:00 4.9 3 Sur 14 Sur 0 939.3 0.2 94
2019-12-08 11:00:00 3.9 8 Sur 14 Sudoeste 0 939.4 0.2 94
2019-12-08 10:00:00 2.6 4 Sur 19 Sudoeste 0 939.2 0.7 98
2019-12-08 09:00:00 1.7 5 Sudeste 9 Sur 0 939.1 0.4 99
2019-12-08 08:00:00 1.6 3 Sudeste 17 Sur 0 939.2 0.8 100
2019-12-08 07:00:00 1.4 5 Sur 13 Sur 0 938.5 -0.4 99
2019-12-08 06:00:00 1.8 3 Sur 14 Sur 0 938.7 -0.4 99
2019-12-08 05:00:00 2.4 4 Sur 14 Sur 0 938.4 -0.7 99
2019-12-08 04:00:00 1.6 2 Sudoeste 6 Sudeste 0 938.9 -0.3 99
2019-12-08 03:00:00 1.7 4 Este 6 Sudeste 0 939.1 -0.5 98
2019-12-08 02:00:00 2 3 Sudeste 5 Este 0 939.1 -0.2 98
2019-12-08 01:00:00 2.8 0 Calma 7 Sudeste 0 939.2 0 97
2019-12-08 00:00:00 3.4 2 Norte 5 Sudeste 0 939.6 0.6 97
2019-12-07 23:00:00 4.3 4 Sudeste 6 Sudeste 0 939.3 0.7 97
2019-12-07 22:00:00 4.4 3 Sudeste 5 Sudeste 0 939.2 1.1 96
2019-12-07 21:00:00 4.9 4 Oeste 5 Oeste 0 939 1.2 93
2019-12-07 20:00:00 5.5 3 Noroeste 8 Sudoeste 0 938.6 1 91
2019-12-07 19:00:00 7.3 4 Sudoeste 10 Sur 0 938.1 0.5 86
2019-12-07 18:00:00 8.9 8 Sur 12 Sur 0 937.8 0.1 81
2019-12-07 17:00:00 9.6 5 Sur 10 Sur 0 937.6 -0.5 80
2019-12-07 16:00:00 9.6 3 Sur 12 Sudoeste 0 937.6 -1.3 79
2019-12-07 15:00:00 9.9 6 Sudeste 11 Sudeste 0 937.7 -1.5 73
2019-12-07 14:00:00 7.8 3 Oeste 8 Norte 0 938.1 -1.2 84
2019-12-07 13:00:00 5.1 3 Este 7 Este 0 938.9 0.2 91
2019-12-07 12:00:00 3 4 Sudeste 8 Sur 0 939.2 0.7 99
2019-12-07 11:00:00 2.3 2 Noroeste 6 Este 0 939.3 1 100
2019-12-07 10:00:00 1.9 2 Este 6 Norte 0 938.7 0.8 100
2019-12-07 09:00:00 1.7 3 Noroeste 4 Norte 0 938.5 1 99
2019-12-07 08:00:00 1.8 2 Sur 7 Sudeste 0 938.3 0.8 99
2019-12-07 07:00:00 1.6 3 Sur 8 Sur 0 937.9 0.4 98
2019-12-07 06:00:00 1.8 3 Sudeste 8 Sudeste 0 937.5 -0.5 98
2019-12-07 05:00:00 2.4 2 Oeste 5 Sudeste 0 937.5 -0.6 97
2019-12-07 04:00:00 3.1 3 Sudeste 5 Sudeste 0 937.5 -0.4 98
2019-12-07 03:00:00 2.8 3 Este 5 Nordeste 0 938 -0.2 98
2019-12-07 02:00:00 2.6 4 Oeste 6 Noroeste 0 938.1 0.4 97
2019-12-07 01:00:00 3.5 3 Sudeste 6 Sudeste 0 937.9 0.6 97
2019-12-07 00:00:00 3.6 3 Sudeste 6 Sudeste 0 938.2 1 95
2019-12-06 23:00:00 4.6 0 Calma 6 Oeste 0 937.7 0.8 95
2019-12-06 22:00:00 4.9 3 Noroeste 5 Noroeste 0 937.3 1 93
2019-12-06 21:00:00 5.4 3 Sudoeste 8 Oeste 0 937.2 1.1 92
2019-12-06 20:00:00 6 5 Oeste 8 Oeste 0 936.9 0.8 89
2019-12-06 19:00:00 7.3 3 Noroeste 7 Sur 0 936.3 0.3 85
2019-12-06 18:00:00 9.3 4 Sudoeste 10 Sudoeste 0 936.1 -0.2 76
2019-12-06 17:00:00 10.4 4 Oeste 11 Sur 0 936.1 -0.7 72
2019-12-06 16:00:00 11.6 4 Oeste 9 Oeste 0 936 -1.4 68
2019-12-06 15:00:00 11.9 4 Sur 10 Sudeste 0 936.3 -1.8 66
2019-12-06 14:00:00 10.6 3 Oeste 8 Noroeste 0 936.8 -1.5 69
2019-12-06 13:00:00 7.8 3 Norte 6 Norte 0 937.4 -0.4 76
2019-12-06 12:00:00 5.1 2 Nordeste 8 Sudeste 0 938.1 1 87
2019-12-06 11:00:00 3.9 4 Este 7 Sudeste 0 938.3 1.3 90
2019-12-06 10:00:00 2.4 3 Noroeste 5 Oeste 0 937.8 1.1 96
2019-12-06 09:00:00 0.9 2 Norte 8 Noroeste 0 937.1 0.6 98
2019-12-06 08:00:00 1.2 4 Noroeste 9 Norte 0 937 0.6 97
2019-12-06 07:00:00 1.5 3 Norte 10 Noroeste 0 936.7 0.2 96
2019-12-06 06:00:00 2 3 Norte 9 Norte 0 936.5 0.3 96
2019-12-06 05:00:00 2 3 Norte 6 Norte 0 936.4 0 96
2019-12-06 04:00:00 2.7 3 Noroeste 7 Nordeste 0 936.5 -0.1 95
2019-12-06 03:00:00 3.1 3 Noroeste 10 Norte 0 936.2 -0.3 93
2019-12-06 02:00:00 3.8 4 Norte 21 Norte 0 936.4 0.2 91
2019-12-06 01:00:00 4.6 4 Norte 15 Norte 0 936.6 0.3 88
2019-12-06 00:00:00 4.4 6 Noroeste 12 Norte 0 936.5 0.4 90
2019-12-05 23:00:00 5 3 Noroeste 15 Nordeste 0 936.2 0.2 87
2019-12-05 22:00:00 5.6 4 Norte 17 Nordeste 0 936.3 0.9 85
2019-12-05 21:00:00 6 5 Norte 15 Nordeste 0 936.1 1.6 83
2019-12-05 20:00:00 6.9 5 Nordeste 17 Nordeste 0 936 1.9 78
2019-12-05 19:00:00 7.4 6 Norte 14 Noroeste 0 935.4 1.7 75
2019-12-05 18:00:00 8.5 5 Norte 21 Nordeste 0 934.5 0.5 73
2019-12-05 17:00:00 9.6 7 Norte 28 Norte 0 934.1 0 68
2019-12-05 16:00:00 10.5 8 Nordeste 22 Este 0 933.7 -0.4 65
2019-12-05 15:00:00 10.9 8 Nordeste 26 Norte 0 934 -0.9 63
2019-12-05 14:00:00 10.7 6 Nordeste 22 Nordeste 0 934.1 -0.4 66
2019-12-05 13:00:00 9.4 8 Nordeste 37 Este 0 934.1 0.2 71
2019-12-05 12:00:00 7.9 14 Nordeste 41 Este 0 934.9 1.9 78
2019-12-05 11:00:00 7.9 6 Norte 24 Nordeste 0 934.5 2.4 78
2019-12-05 10:00:00 7 5 Nordeste 23 Nordeste 0 933.9 2.4 81
2019-12-05 09:00:00 5.8 3 Norte 16 Nordeste 0 933 1.6 86
2019-12-05 08:00:00 5.7 4 Norte 21 Nordeste 0 932.1 1.5 85
2019-12-05 07:00:00 6.2 5 Norte 23 Nordeste 0 931.5 1 83
2019-12-05 06:00:00 6.1 5 Norte 24 Noroeste 0 931.4 1.1 85
2019-12-05 05:00:00 6.6 6 Nordeste 26 Nordeste 0 930.6 0.6 85
2019-12-05 04:00:00 7.1 8 Norte 29 Nordeste 0 930.5 0.8 82
2019-12-05 03:00:00 7.1 10 Nordeste 33 Nordeste 0 930.3 1.2 79
2019-12-05 02:00:00 6.4 8 Nordeste 28 Noroeste 0 930 1.4 80
2019-12-05 01:00:00 5.8 7 Norte 31 Norte 0 929.7 1.7 79
2019-12-05 00:00:00 4.8 5 Norte 16 Norte 0 929.1 1.3 85
2019-12-04 23:00:00 4.3 4 Norte 27 Nordeste 0 928.6 1 83
2019-12-04 22:00:00 5.1 6 Norte 22 Norte 0 928 1.1 72
2019-12-04 21:00:00 6.2 6 Norte 19 Norte 0 927.8 1.3 70
2019-12-04 20:00:00 7.4 5 Norte 18 Nordeste 0 927.6 1.9 72
2019-12-04 19:00:00 7.8 5 Norte 13 Nordeste 0 926.9 1.3 75
2019-12-04 18:00:00 8.3 4 Norte 17 Noroeste 0 926.5 0.6 78
2019-12-04 17:00:00 8.7 6 Noroeste 15 Norte 0 925.7 -0.4 78
2019-12-04 16:00:00 8.8 4 Norte 18 Nordeste 0 925.6 -0.9 75
2019-12-04 15:00:00 8.9 5 Nordeste 19 Nordeste 0 925.9 -1 69
2019-12-04 14:00:00 8.9 6 Nordeste 22 Nordeste 0 926.1 -1.1 69
2019-12-04 13:00:00 6.6 4 Norte 14 Norte 0 926.5 -0.6 80
2019-12-04 12:00:00 4.7 4 Norte 15 Nordeste 0 926.9 0.3 86
2019-12-04 11:00:00 2.5 5 Norte 15 Norte 0 927.2 0.7 88
2019-12-04 10:00:00 1.3 5 Noroeste 9 Norte 0 927.1 0.9 92
2019-12-04 09:00:00 0.2 6 Noroeste 9 Noroeste 0 926.6 0.3 95
2019-12-04 08:00:00 -0.2 2 Noroeste 9 Noroeste 0 926.5 -0.6 95
2019-12-04 07:00:00 0.2 5 Noroeste 13 Noroeste 0 926.2 -1.3 94
2019-12-04 06:00:00 0.5 5 Norte 12 Este 0 926.3 -1.7 92
2019-12-04 05:00:00 0.5 3 Norte 11 Nordeste 0 927.1 -1.5 93
2019-12-04 04:00:00 0.6 3 Norte 10 Nordeste 0 927.5 -1.4 93
2019-12-04 03:00:00 0.6 3 Noroeste 10 Norte 0 928 -1.7 93
2019-12-04 02:00:00 1.1 4 Noroeste 9 Noroeste 0 928.6 -0.9 92
2019-12-04 01:00:00 1.4 5 Noroeste 11 Norte 0 928.9 -0.2 92
2019-12-04 00:00:00 0.6 4 Noroeste 14 Norte 0 929.7 0.2 94
2019-12-03 23:00:00 0.5 3 Norte 11 Norte 0 929.5 0.2 93
2019-12-03 22:00:00 1.1 3 Norte 11 Nordeste 0 929.1 0.1 91
2019-12-03 21:00:00 1.7 3 Norte 8 Nordeste 0 929.5 0.6 89
2019-12-03 20:00:00 2.7 4 Nordeste 16 Nordeste 0 929.3 0.6 86
2019-12-03 19:00:00 3.4 4 Norte 19 Norte 0 929 0.1 83
2019-12-03 18:00:00 4.5 3 Norte 21 Norte 0 928.9 -0.3 79
2019-12-03 17:00:00 5.7 4 Nordeste 23 Nordeste 0 928.7 -1.2 72
2019-12-03 16:00:00 6.5 5 Nordeste 18 Norte 0 928.9 -2 68
2019-12-03 15:00:00 7.6 6 Nordeste 22 Nordeste 0 929.2 -2.5 63
2019-12-03 14:00:00 6.4 6 Nordeste 23 Norte 0 929.9 -2.4 68
2019-12-03 13:00:00 6.4 11 Este 28 Nordeste 0 930.9 -1.3 67
2019-12-03 12:00:00 4.8 10 Nordeste 30 Nordeste 0 931.7 -0.5 74
2019-12-03 11:00:00 3.3 7 Nordeste 24 Este 0 932.3 -0.1 81
2019-12-03 10:00:00 2.8 6 Nordeste 19 Nordeste 0 932.2 -0.2 84
2019-12-03 09:00:00 1.2 4 Norte 19 Nordeste 0 932.2 -0.6 92
2019-12-03 08:00:00 1.4 4 Nordeste 21 Noroeste 0 932.4 -0.6 91
2019-12-03 07:00:00 1.4 6 Nordeste 18 Nordeste 0 932.4 -0.9 90
2019-12-03 06:00:00 1.7 5 Norte 16 Norte 0 932.8 -0.5 86
2019-12-03 05:00:00 1.7 4 Nordeste 16 Nordeste 0 933 -0.7 86
2019-12-03 04:00:00 2.1 5 Norte 23 Este 0 933.3 -0.8 86
2019-12-03 03:00:00 2.3 6 Nordeste 24 Norte 0 933.3 -1.2 86
2019-12-03 02:00:00 2.2 5 Norte 19 Este 0 933.7 -0.8 86
2019-12-03 01:00:00 2.3 7 Norte 21 Norte 0 934.1 -0.5 85
2019-12-03 00:00:00 2.3 5 Nordeste 21 Nordeste 0 934.5 -0.2 82
2019-12-02 23:00:00 2.8 6 Norte 33 Nordeste 0 934.5 0.3 78
2019-12-02 22:00:00 3.2 6 Nordeste 29 Norte 0 934.6 1 74
2019-12-02 21:00:00 3.9 8 Nordeste 25 Noroeste 0 934.7 1.7 72
2019-12-02 20:00:00 4.5 9 Norte 32 Nordeste 0 934.2 1.6 71
2019-12-02 19:00:00 5.2 7 Norte 31 Norte 0 933.6 1.3 76
2019-12-02 18:00:00 6.3 6 Nordeste 30 Nordeste 0 933 1 76
2019-12-02 17:00:00 7.9 10 Nordeste 37 Este 0 932.6 0.3 68
2019-12-02 16:00:00 8.4 11 Nordeste 37 Nordeste 0 932.3 -0.2 73
2019-12-02 15:00:00 9.4 11 Nordeste 36 Este 0 932 -1.1 68
2019-12-02 14:00:00 8.5 6 Nordeste 32 Nordeste 0 932.3 -0.4 76
2019-12-02 13:00:00 8.5 11 Nordeste 46 Norte 0 932.5 0.5 69
2019-12-02 12:00:00 7.5 15 Nordeste 44 Nordeste 0 933.1 1.5 76
2019-12-02 11:00:00 6.9 10 Nordeste 31 Nordeste 0 932.7 1.6 82
2019-12-02 10:00:00 6.2 7 Nordeste 30 Nordeste 0 932 1.3 87
2019-12-02 09:00:00 5 7 Norte 28 Nordeste 0 931.6 1.3 93
2019-12-02 08:00:00 5 7 Norte 26 Nordeste 0 931.1 0.9 92
2019-12-02 07:00:00 4.6 6 Norte 24 Norte 0 930.7 0.7 91
2019-12-02 06:00:00 4.1 5 Norte 26 Nordeste 0 930.3 0.8 92
2019-12-02 05:00:00 4.1 5 Nordeste 25 Norte 0 930.2 0.8 91
2019-12-02 04:00:00 4.2 7 Nordeste 23 Norte 0 930 0.9 91
2019-12-02 03:00:00 4 7 Norte 22 Noroeste 0 929.5 0.5 92
2019-12-02 02:00:00 4.6 6 Norte 19 Nordeste 0 929.4 0.7 91
2019-12-02 01:00:00 5 6 Nordeste 25 Norte 0 929.1 0.7 90
2019-12-02 00:00:00 5.3 5 Nordeste 23 Nordeste 0 929 1.1 92
2019-12-01 23:00:00 5.4 6 Norte 21 Noroeste 0 928.7 1.1 91
2019-12-01 22:00:00 5.5 6 Norte 19 Noroeste 0 928.4 1.5 91
2019-12-01 21:00:00 6.2 4 Norte 12 Nordeste 0 927.9 1.2 91
2019-12-01 20:00:00 6.4 4 Norte 9 Noroeste 0 927.6 1.3 95
2019-12-01 19:00:00 6.6 3 Norte 14 Este 0 926.9 0.8 94
2019-12-01 18:00:00 6.5 3 Norte 13 Nordeste 0 926.7 0.8 93
2019-12-01 17:00:00 6.7 4 Nordeste 18 Nordeste 0 926.3 0.4 92
2019-12-01 16:00:00 6.8 6 Nordeste 17 Este 0.2 926.1 0 92
2019-12-01 15:00:00 6.8 5 Nordeste 14 Este 0.2 925.9 -0.5 97
2019-12-01 14:00:00 6.7 6 Este 14 Este 0.4 925.9 -0.1 97
2019-12-01 13:00:00 6.6 7 Este 14 Este 1 926.1 0.5 96
2019-12-01 12:00:00 6.3 3 Este 10 Sudeste 0.4 926.4 1.4 94
2019-12-01 11:00:00 5.9 5 Sudeste 13 Sudeste 1.2 926 1 95
2019-12-01 10:00:00 5.6 6 Sudeste 14 Sudeste 1.8 925.6 0.7 97
2019-12-01 09:00:00 5.5 4 Sudeste 13 Sudeste 0.6 925 -0.2 96
2019-12-01 08:00:00 5.4 5 Sudeste 13 Sudeste 0.2 925 -0.9 95
2019-12-01 07:00:00 5.3 4 Sudeste 10 Sudeste 0.8 924.9 -1.5 94
2019-12-01 06:00:00 5.4 4 Sudeste 12 Sudeste 0.2 925.2 -1.7 92
2019-12-01 05:00:00 5.9 6 Sur 14 Sur 0.2 925.9 -1.6 91
2019-12-01 04:00:00 5.9 4 Sur 11 Sudoeste 0 926.4 -1.9 94
2019-12-01 03:00:00 5.9 3 Sudoeste 14 Sudoeste 0 926.9 -1.8 92
2019-12-01 02:00:00 6 5 Sudoeste 13 Sur 0 927.5 -1.6 93
2019-12-01 01:00:00 6 7 Sudoeste 16 Sudoeste 0 928.3 -1 95
2019-12-01 00:00:00 5.7 5 Sudoeste 12 Sur 0 928.7 -1 92
2019-11-30 23:00:00 5.9 8 Sur 13 Sudoeste 0 929.1 -0.5 91
2019-11-30 22:00:00 6.8 8 Sudoeste 15 Sudoeste 0 929.3 -0.1 87
2019-11-30 21:00:00 7.2 7 Sudoeste 22 Sur 0 929.7 0.5 86
2019-11-30 20:00:00 7.9 7 Sudoeste 28 Sudoeste 0 929.6 0.2 82
2019-11-30 19:00:00 8.4 16 Oeste 35 Oeste 0 929.4 0.1 79
2019-11-30 18:00:00 8.9 13 Oeste 31 Oeste 0 929.2 0.2 77
2019-11-30 17:00:00 9.1 14 Oeste 33 Oeste 0.6 929.4 0.4 84
2019-11-30 16:00:00 9.9 11 Oeste 33 Noroeste 0.4 929.3 -0.4 90
2019-11-30 15:00:00 10.5 17 Oeste 41 Oeste 0.4 929 -1.5 91
2019-11-30 14:00:00 12.6 11 Sudoeste 32 Oeste 3.6 929 -1.9 95
2019-11-30 13:00:00 12.8 13 Sudoeste 37 Sudoeste 0.2 929.7 -1.4 90
2019-11-30 12:00:00 13.1 10 Sudoeste 37 Sur 0 930.5 -1 86
2019-11-30 11:00:00 12.4 11 Sur 26 Sudoeste 0.2 930.9 -0.9 90
2019-11-30 10:00:00 11.7 7 Sur 26 Sudoeste 0 931.1 -0.8 94
2019-11-30 09:00:00 11.3 6 Sur 22 Sur 0 931.5 -0.8 94
2019-11-30 08:00:00 11.1 6 Sur 19 Sudoeste 0 931.8 -0.8 96
2019-11-30 07:00:00 10.9 5 Sur 17 Sur 0 931.9 -1.3 97
2019-11-30 06:00:00 11.3 6 Sudoeste 18 Sudoeste 0 932.3 -1.2 95
2019-11-30 05:00:00 11.6 7 Sudoeste 21 Oeste 0 932.6 -1.1 97
2019-11-30 04:00:00 11.5 9 Sudoeste 20 Oeste 0 933.2 -0.8 98
2019-11-30 03:00:00 11.7 6 Sudoeste 16 Sudoeste 0 933.5 -0.9 98
2019-11-30 02:00:00 11.7 5 Sudoeste 17 Sudoeste 0 933.7 -0.9 99
2019-11-30 01:00:00 11.4 3 Sur 13 Sur 0.4 934 -0.5 98
2019-11-30 00:00:00 11.3 5 Sur 12 Sur 1.4 934.4 -0.2 98
2019-11-29 23:00:00 11.2 6 Sur 14 Sur 0.2 934.6 0.1 96
2019-11-29 22:00:00 11.6 5 Sur 11 Sudoeste 1 934.5 0.1 93
2019-11-29 21:00:00 12.1 4 Sudoeste 9 Sur 0 934.6 0.3 89
2019-11-29 20:00:00 12.3 5 Sudoeste 12 Sudoeste 0 934.5 0.4 88
2019-11-29 19:00:00 12.6 5 Sur 9 Sur 0 934.4 0.4 86
2019-11-29 18:00:00 13 5 Sudoeste 10 Sudoeste 0 934.3 0.3 82
2019-11-29 17:00:00 13.9 5 Oeste 14 Oeste 0 934.1 -0.3 79
2019-11-29 16:00:00 14.3 5 Oeste 17 Oeste 0 934 -0.5 78
2019-11-29 15:00:00 14.2 5 Oeste 23 Oeste 0 934 -1.1 77
2019-11-29 14:00:00 14.3 9 Oeste 17 Sudoeste 0 934.4 0 77
2019-11-29 13:00:00 13.7 5 Oeste 12 Oeste 0 934.5 0.3 86
2019-11-29 12:00:00 12.8 6 Oeste 14 Oeste 0 935.1 1.3 90
2019-11-29 11:00:00 12.1 3 Sur 8 Oeste 0 934.4 1.5 97
2019-11-29 10:00:00 11.5 6 Sudoeste 12 Oeste 0.2 934.2 1.9 99
2019-11-29 09:00:00 11.2 3 Noroeste 10 Oeste 0.2 933.8 2 99
2019-11-29 08:00:00 11.1 7 Oeste 13 Sudoeste 0.2 932.9 1.3 98
2019-11-29 07:00:00 11.1 6 Sudoeste 14 Oeste 0.2 932.3 1 98
2019-11-29 06:00:00 11 6 Sudoeste 14 Sudoeste 0 931.8 1 98
2019-11-29 05:00:00 11.1 6 Sudoeste 18 Sudoeste 0 931.6 0.9 97
2019-11-29 04:00:00 10.9 4 Sudoeste 19 Oeste 0.2 931.3 0.9 98
2019-11-29 03:00:00 10.9 10 Sudoeste 16 Sudoeste 1 930.8 0.6 98
2019-11-29 02:00:00 10.9 4 Sudoeste 19 Sudoeste 1.4 930.7 0.8 97
2019-11-29 01:00:00 10.9 10 Sudoeste 24 Oeste 0.2 930.4 1 96
2019-11-29 00:00:00 10.9 9 Sudoeste 24 Oeste 0.4 930.2 1.1 94
2019-11-28 23:00:00 10.6 6 Sudoeste 18 Sur 0.4 929.9 0.9 93
2019-11-28 22:00:00 10.7 6 Sudoeste 19 Sudoeste 0.2 929.4 0.9 91
2019-11-28 21:00:00 11 6 Sur 30 Sur 0.2 929.1 0.7 87
2019-11-28 20:00:00 11.3 10 Sudoeste 22 Sur 0 929 1.1 83
2019-11-28 19:00:00 12.3 8 Sudoeste 32 Sudoeste 0 928.5 0.5 75
2019-11-28 18:00:00 12.4 9 Sudoeste 36 Sudoeste 0 928.4 0.2 78
2019-11-28 17:00:00 12.8 13 Sudoeste 34 Sudoeste 0 927.9 -1.1 74
2019-11-28 16:00:00 12.9 13 Sudoeste 38 Oeste 0 928 -1.3 71
2019-11-28 15:00:00 12.7 12 Sudoeste 30 Sudoeste 0 928.2 -1.9 73
2019-11-28 14:00:00 11.9 12 Sudoeste 32 Oeste 0 929 -1.2 79
2019-11-28 13:00:00 11.4 10 Sudoeste 24 Sudoeste 0 929.3 -0.5 83
2019-11-28 12:00:00 10.9 6 Sur 21 Sur 0 930.1 0.8 85
2019-11-28 11:00:00 10.2 8 Sur 21 Sur 0 930.2 1.4 86
2019-11-28 10:00:00 9.9 9 Sudoeste 19 Sudoeste 0 929.8 1.4 87
2019-11-28 09:00:00 9.3 6 Sudoeste 18 Sur 0 929.3 1.3 88
2019-11-28 08:00:00 9.4 9 Sur 23 Oeste 0 928.8 0.9 87
2019-11-28 07:00:00 9.4 11 Sudoeste 27 Sudoeste 0 928.4 0.2 88
2019-11-28 06:00:00 9.4 7 Sudoeste 30 Sudoeste 0 928 0.1 88
2019-11-28 05:00:00 9.2 12 Sudoeste 28 Oeste 0 927.9 -0.1 90
2019-11-28 04:00:00 9.3 8 Sudoeste 22 Sur 0 928.2 0.1 89
2019-11-28 03:00:00 9.2 10 Sudoeste 28 Sudoeste 0 927.9 -0.1 89
2019-11-28 02:00:00 9.4 9 Sudoeste 23 Oeste 0 928 0.3 89
2019-11-28 01:00:00 9.1 9 Sudoeste 24 Sudoeste 0 928.1 0.8 89
2019-11-28 00:00:00 9.2 9 Sudoeste 37 Oeste 0 928 0.9 87
2019-11-27 23:00:00 9.7 15 Oeste 35 Oeste 0 927.7 0.8 85
2019-11-27 22:00:00 9.7 10 Sudoeste 27 Oeste 0 927.3 0.5 86
2019-11-27 21:00:00 9.9 18 Oeste 33 Oeste 0 927.1 1 82
2019-11-27 20:00:00 10.3 10 Oeste 29 Sudoeste 0 926.9 1.3 76
2019-11-27 19:00:00 10.5 9 Oeste 31 Sudoeste 0 926.8 1.4 74
2019-11-27 18:00:00 10.9 12 Oeste 31 Oeste 0 926.1 0.8 75
2019-11-27 17:00:00 11.2 15 Sudoeste 40 Oeste 0 925.6 -0.1 73
2019-11-27 16:00:00 11 10 Sudoeste 26 Oeste 0 925.4 -0.9 75
2019-11-27 15:00:00 11.1 11 Sudoeste 35 Sudoeste 0 925.3 -1.8 75
2019-11-27 14:00:00 11 13 Oeste 43 Sudoeste 0 925.7 -1.5 78
2019-11-27 06:00:00 7.6 7 Sudoeste 22 Sur 0 924.4 0.5 89
2019-11-27 05:00:00 7.8 8 Sudoeste 33 Oeste 0 924.1 0.9 86
2019-11-27 04:00:00 8.3 13 Sudoeste 26 Sudoeste 0 923.9 1.1 83
2019-11-27 03:00:00 9.2 12 Oeste 32 Oeste 0 923.9 1.5 83
2019-11-27 02:00:00 9.1 16 Oeste 41 Oeste 0 923.2 0.9 85
2019-11-27 01:00:00 9.2 17 Oeste 56 Oeste 0 922.8 0.8 87
2019-11-27 00:00:00 9.8 22 Oeste 51 Oeste 0 922.4 0.7 83
2019-11-26 23:00:00 10.5 20 Oeste 48 Oeste 0 922.3 0.9 89
2019-11-26 22:00:00 11 14 Oeste 53 Sudoeste 1 922 1.2 93
2019-11-26 21:00:00 12.2 10 Sudoeste 33 Sudoeste 0.2 921.7 0.9 87
2019-11-26 20:00:00 12.1 8 Sudoeste 30 Sur 0 921.4 0.7 90
2019-11-26 19:00:00 12.4 11 Sudoeste 35 Oeste 0.4 920.8 -0.5 92
2019-11-26 18:00:00 13 15 Sudoeste 53 Sur 0.6 920.8 -1.3 92
2019-11-26 17:00:00 14.9 20 Sudoeste 56 Sudoeste 0.2 920.7 -2.5 76
2019-11-26 16:00:00 15.1 14 Sudoeste 42 Sudoeste 0 921.3 -3.1 76
2019-11-26 15:00:00 15.4 14 Sudoeste 38 Sudoeste 0 922.1 -3.4 75
2019-11-26 14:00:00 14.8 13 Sudoeste 31 Sudoeste 0 923.2 -2.9 78
2019-11-26 13:00:00 14.7 12 Sudoeste 29 Sudoeste 0 924.4 -2.2 80
2019-11-26 12:00:00 13.8 11 Sudoeste 29 Sudoeste 0 925.5 -1 83
2019-11-26 11:00:00 12.3 10 Sudoeste 23 Sur 0 926.1 -0.3 89
2019-11-26 10:00:00 10.9 6 Sur 18 Sudoeste 0 926.6 -0.1 95
2019-11-26 09:00:00 10.3 6 Sudoeste 22 Sudoeste 1 926.5 -0.7 95
2019-11-26 08:00:00 10.1 8 Sur 17 Sur 0 926.4 -1.4 93
2019-11-26 07:00:00 9.8 7 Sur 16 Sudeste 0 926.7 -1.9 92
2019-11-26 06:00:00 9.5 6 Sur 22 Sur 0 927.2 -1.3 94
2019-11-26 05:00:00 9.3 7 Sur 16 Sur 0 927.8 -1.4 95
2019-11-26 04:00:00 9.1 4 Sur 15 Sur 0 928.6 -1.1 94
2019-11-26 03:00:00 9.3 6 Sur 12 Sudeste 0 928.5 -1.5 93
2019-11-26 02:00:00 9.1 4 Sur 10 Sudeste 0 929.2 -1.1 94
2019-11-26 01:00:00 9.1 6 Sur 14 Sur 0 929.7 -0.5 94
2019-11-26 00:00:00 9.5 8 Sur 15 Sur 0 930 -0.2 93
2019-11-25 23:00:00 9.4 5 Sur 11 Sudoeste 0 930.3 0.2 91
2019-11-25 22:00:00 9.7 5 Sur 12 Sur 0 930.2 0.5 88
2019-11-25 21:00:00 9.7 5 Sur 12 Sur 0 930.2 1 87
2019-11-25 20:00:00 10.4 5 Sur 12 Sur 0 930.1 1.1 82
2019-11-25 19:00:00 11.1 6 Sudoeste 16 Sudoeste 0 929.7 0.9 79
2019-11-25 18:00:00 11.8 5 Sudoeste 21 Oeste 0 929.2 0.7 77
2019-11-25 17:00:00 12.5 10 Oeste 28 Oeste 0 929 0.5 76
2019-11-25 16:00:00 13 13 Oeste 31 Oeste 0 928.8 0.1 71
2019-11-25 15:00:00 13.5 15 Oeste 38 Oeste 0 928.5 -0.5 71
2019-11-25 14:00:00 13.1 17 Oeste 36 Oeste 0 928.5 -0.3 72
2019-11-25 13:00:00 12.1 10 Oeste 24 Sudoeste 0 928.7 0.4 91
2019-11-25 12:00:00 11.6 10 Sudoeste 19 Sudoeste 0 929 1.1 92
2019-11-25 11:00:00 10.7 6 Sur 17 Sudoeste 0 928.8 1.3 96
2019-11-25 10:00:00 10.1 9 Sudoeste 18 Sudoeste 0 928.3 1.2 97
2019-11-25 09:00:00 9.9 6 Sur 19 Sudoeste 0.2 927.9 0.9 98
2019-11-25 08:00:00 9.7 5 Sudoeste 16 Sudoeste 0 927.5 0.7 97
2019-11-25 07:00:00 9.7 5 Sur 17 Sudoeste 0 927.1 0.6 98
2019-11-25 06:00:00 9.6 4 Sudoeste 16 Sudoeste 0 927 0.6 98
2019-11-25 05:00:00 9.5 6 Sur 18 Sur 0 926.8 0.5 98
2019-11-25 04:00:00 9.4 7 Sur 19 Sur 0.2 926.5 0.4 98
2019-11-25 03:00:00 9 5 Sur 18 Sudoeste 0.6 926.4 0.5 98
2019-11-25 02:00:00 8.8 5 Sudoeste 12 Sudoeste 1.2 926.3 0.2 98
2019-11-25 01:00:00 8.6 6 Sudoeste 21 Sudoeste 0.4 926.1 -0.6 98
2019-11-25 00:00:00 8.1 9 Sudoeste 19 Sur 0.4 925.9 -1.2 97
2019-11-24 23:00:00 8 10 Sur 26 Sur 0.2 926.1 -1.5 94
2019-11-24 22:00:00 8.3 13 Sur 27 Sur 0 926.7 -1.1 90
2019-11-24 21:00:00 8.3 5 Sur 19 Sudoeste 0 927.1 -0.8 86
2019-11-24 20:00:00 8.4 9 Sur 21 Sur 0 927.6 -0.6 87
2019-11-24 19:00:00 8.6 7 Sudoeste 23 Sur 0 927.8 -0.6 86
2019-11-24 18:00:00 8.5 6 Sur 19 Sudoeste 0 927.9 -0.7 81
2019-11-24 17:00:00 8.7 9 Sudoeste 22 Oeste 0 928.2 -0.5 78
2019-11-24 16:00:00 8.9 8 Oeste 21 Sudoeste 0 928.4 -1.4 76
2019-11-24 15:00:00 8.6 10 Sudoeste 25 Sudoeste 0 928.6 -1.7 77
2019-11-24 14:00:00 8.1 10 Sudoeste 21 Sudoeste 0 928.7 -1.7 77
2019-11-24 13:00:00 7.6 7 Sudoeste 20 Sudoeste 0 929.8 -0.1 80
2019-11-24 12:00:00 6.6 10 Sudoeste 22 Oeste 0 930.3 0.9 85
2019-11-24 11:00:00 5.3 7 Sudoeste 14 Sur 0 930.4 1.5 91
2019-11-24 10:00:00 4.2 6 Sudoeste 22 Sudoeste 0 929.9 1.4 94
2019-11-24 09:00:00 3.7 13 Sudoeste 26 Sudoeste 0 929.4 1.5 94
2019-11-24 08:00:00 3.5 12 Sudoeste 20 Sudoeste 0 928.9 1.3 94
2019-11-24 07:00:00 3.5 9 Sur 19 Oeste 0 928.5 1.1 94
2019-11-24 06:00:00 3.5 10 Oeste 25 Oeste 0 927.9 1.1 93
2019-11-24 05:00:00 3.8 9 Oeste 23 Oeste 0 927.6 0.7 93
2019-11-24 04:00:00 4.1 12 Oeste 27 Oeste 0 927.4 0.8 91
2019-11-24 03:00:00 4.4 9 Oeste 27 Oeste 0 926.8 0.8 92
2019-11-24 02:00:00 4.5 6 Sudeste 29 Oeste 0 926.9 0.8 91
2019-11-24 01:00:00 4.7 10 Oeste 25 Oeste 0 926.6 1.1 89
2019-11-24 00:00:00 4.8 13 Oeste 25 Oeste 0 926 0.9 87
2019-11-23 23:00:00 5.3 13 Sudoeste 26 Oeste 0 926.1 1.7 85
2019-11-23 22:00:00 5.7 11 Oeste 24 Sudoeste 0 925.5 2 81
2019-11-23 21:00:00 6.6 9 Sudoeste 22 Sudoeste 0 925.1 2.4 76
2019-11-23 20:00:00 7.2 9 Oeste 19 Sudoeste 0 924.4 2.5 74
2019-11-23 19:00:00 8.1 5 Oeste 15 Noroeste 0 923.5 2.8 69
2019-11-23 18:00:00 7.9 5 Noroeste 19 Noroeste 0 922.7 2.6 69
2019-11-23 17:00:00 9.6 9 Noroeste 32 Noroeste 0 921.9 2.2 61
2019-11-23 16:00:00 10.1 12 Noroeste 44 Oeste 0 920.7 1.5 59
2019-11-23 15:00:00 10.8 17 Noroeste 46 Oeste 0 920.1 0.8 53
2019-11-23 14:00:00 10.7 11 Oeste 39 Norte 0 919.7 1.5 57
2019-11-23 13:00:00 10 15 Oeste 39 Oeste 0 919.2 2.1 64
2019-11-23 12:00:00 8.2 17 Oeste 40 Oeste 0 919.3 3.5 75
2019-11-23 11:00:00 6.6 19 Oeste 44 Oeste 0 918.2 3.9 79
2019-11-23 10:00:00 5.7 17 Oeste 39 Oeste 0 917.1 4.4 79
2019-11-23 09:00:00 4.3 18 Oeste 40 Oeste 0 915.8 4.3 82
2019-11-23 08:00:00 4.3 19 Oeste 47 Oeste 0 914.3 4.2 84
2019-11-23 07:00:00 4.7 20 Oeste 44 Oeste 0 912.7 3.6 83
2019-11-23 06:00:00 5.2 22 Oeste 46 Oeste 0 911.5 3.3 83
2019-11-23 05:00:00 5.5 21 Oeste 53 Oeste 0 910.1 2.6 83
2019-11-23 04:00:00 6.1 22 Oeste 59 Oeste 0 909.1 2 82
2019-11-23 03:00:00 6.2 22 Oeste 55 Oeste 0 908.2 1.7 82
2019-11-23 02:00:00 6.6 24 Oeste 61 Oeste 0 907.5 1.1 84
2019-11-23 01:00:00 7 24 Oeste 54 Sudoeste 0 907.1 0.7 80
2019-11-23 00:00:00 8 23 Oeste 42 Sudoeste 0 906.5 0.2 81
2019-11-22 23:00:00 8.6 21 Sudoeste 46 Sudoeste 0 906.4 0.3 82
2019-11-22 22:00:00 8.5 10 Sudoeste 26 Sudoeste 0 906.4 0.2 87
2019-11-22 21:00:00 8.5 11 Sudoeste 29 Sudoeste 0 906.3 0.5 85
2019-11-22 20:00:00 8.6 12 Sudoeste 35 Sudoeste 0 906.1 1.1 89
2019-11-22 19:00:00 8.6 10 Sudoeste 49 Oeste 0 906.2 1.7 84
2019-11-22 18:00:00 10.1 25 Oeste 54 Sudoeste 0 905.8 1.2 76
2019-11-22 17:00:00 11.2 20 Oeste 49 Oeste 0 905 -0.3 80
2019-11-22 16:00:00 12.4 20 Oeste 48 Sudoeste 0.4 904.5 -1.7 83
2019-11-22 15:00:00 12.1 15 Sudoeste 39 Sur 0 904.6 -2.9 86
2019-11-22 14:00:00 11.1 8 Sur 28 Sudoeste 2.6 905.3 -3.5 93
2019-11-22 13:00:00 9.7 9 Sur 25 Sur 5.4 906.2 -3.7 93
2019-11-22 12:00:00 9.8 13 Sur 26 Sur 0 907.5 -4.1 85
2019-11-22 11:00:00 8.4 10 Sur 24 Sur 0 908.8 -4.2 89
2019-11-22 10:00:00 7.4 9 Sudeste 23 Sur 0.6 909.9 -4.4 95
2019-11-22 09:00:00 6.8 5 Sudeste 19 Sur 1.6 911.6 -3.7 97
2019-11-22 08:00:00 6.6 6 Sur 22 Sur 2.8 913 -3.1 97
2019-11-22 07:00:00 6.5 7 Sur 17 Sur 1.6 914.3 -3.2 96
2019-11-22 06:00:00 6.5 8 Sur 18 Sur 0.2 915.3 -2.9 94
2019-11-22 05:00:00 6 3 Sudeste 12 Sur 0.2 916.1 -2.7 95
2019-11-22 04:00:00 5.8 4 Sur 12 Sur 0 917.5 -2.2 94
2019-11-22 03:00:00 5.7 5 Sur 15 Sur 0 918.2 -1.8 96
2019-11-22 02:00:00 5.9 4 Sur 14 Sur 0.4 918.8 -1.7 95
2019-11-22 01:00:00 6.2 4 Sur 14 Sudoeste 0 919.7 -1.4 95
2019-11-22 00:00:00 6.1 4 Sur 12 Sur 0 920 -1.4 94
2019-11-21 23:00:00 6 5 Sudeste 13 Sur 0.2 920.5 -0.5 92
2019-11-21 22:00:00 6.4 6 Sur 13 Sudeste 0 921.1 0.1 88
2019-11-21 21:00:00 6.5 3 Sur 8 Sur 0 921.4 0.4 85
2019-11-21 20:00:00 6.9 3 Sur 7 Sur 0 921 0.2 84
2019-11-21 19:00:00 8.1 3 Sudoeste 12 Sudoeste 0 921 0.3 77
2019-11-21 18:00:00 8.9 5 Oeste 17 Oeste 0 921 0.1 75
2019-11-21 17:00:00 9.3 4 Oeste 16 Sudoeste 0 920.8 -0.3 72
2019-11-21 16:00:00 10.2 10 Oeste 22 Sudoeste 0 920.7 -0.7 68
2019-11-21 15:00:00 9.3 9 Sudoeste 23 Sudoeste 0 920.9 -0.8 71
2019-11-21 14:00:00 9.5 8 Oeste 27 Oeste 0 921.1 -0.5 73
2019-11-21 13:00:00 9.8 10 Sudoeste 24 Oeste 0 921.4 0 71
2019-11-21 12:00:00 8.2 9 Oeste 21 Oeste 0 921.7 0.5 87
2019-11-21 11:00:00 6.6 7 Sudoeste 15 Sudoeste 0 921.6 0.6 95
2019-11-21 10:00:00 5.6 6 Sur 15 Sur 0 921.4 0.6 96
2019-11-21 09:00:00 5.2 5 Sur 13 Sur 0 921.2 0.4 96
2019-11-21 08:00:00 -- -- -- -- -- -- -- -- --
2019-11-21 07:00:00 -- -- -- -- -- -- -- -- --
2019-11-21 06:00:00 -- -- -- -- -- -- -- -- --
2019-11-21 05:00:00 -- -- -- -- -- -- -- -- --
2019-11-21 04:00:00 -- -- -- -- -- -- -- -- --
2019-11-21 03:00:00 -- -- -- -- -- -- -- -- --
2019-11-21 02:00:00 -- -- -- -- -- -- -- -- --
2019-11-21 01:00:00 -- -- -- -- -- -- -- -- --
2019-11-21 00:00:00 -- -- -- -- -- -- -- -- --
2019-11-20 23:00:00 -- -- -- -- -- -- -- -- --
2019-11-20 22:00:00 -- -- -- -- -- -- -- -- --
2019-11-20 21:00:00 -- -- -- -- -- -- -- -- --
2019-11-20 20:00:00 -- -- -- -- -- -- -- -- --
2019-11-20 19:00:00 6.4 5 Sur 21 Sur 0 921.2 -0.4 95
2019-11-20 18:00:00 6.3 6 Sur 12 Sur 0 921.2 -0.5 95
2019-11-20 17:00:00 6.4 5 Sur 13 Oeste 0.8 921.4 -0.9 94
2019-11-20 16:00:00 6.4 4 Oeste 21 Oeste 1 921.6 -1.3 93
2019-11-20 15:00:00 6.6 9 Sudoeste 21 Sudoeste 0.4 921.7 -1.9 93
2019-11-20 14:00:00 6.9 9 Sudoeste 26 Sudoeste 0.8 922.3 -1.7 90
2019-11-20 13:00:00 6.5 8 Sudoeste 17 Sudoeste 0.2 922.9 -1.4 94
2019-11-20 12:00:00 6 4 Sur 15 Sur 0.2 923.6 -0.5 96
2019-11-20 11:00:00 5.1 5 Sur 15 Sur 0.2 924 0 97
2019-11-20 10:00:00 4.4 4 Sudeste 11 Sur 0.8 924.3 0.1 96
2019-11-20 09:00:00 4.2 4 Sur 11 Sudoeste 0 924.1 -0.4 92
2019-11-20 08:00:00 4.5 4 Sur 10 Sur 0.4 924 -0.9 88
2019-11-20 07:00:00 4.7 4 Sudeste 9 Sudeste 0 924.2 -1.5 84
2019-11-20 06:00:00 4.6 3 Sur 9 Sudeste 0 924.5 -1.7 85
2019-11-20 05:00:00 4.7 4 Sur 12 Sur 0 924.9 -1.7 85
2019-11-20 04:00:00 4.8 4 Sur 12 Sur 0 925.7 -1.5 86
2019-11-20 03:00:00 5 3 Sur 13 Sur 0 926.2 -1.5 85
2019-11-20 02:00:00 5.3 6 Sur 14 Sur 0 926.6 -1.5 82
2019-11-20 01:00:00 5.5 5 Sur 10 Sur 0 927.2 -1.2 83
2019-11-20 00:00:00 5.5 3 Sur 9 Sur 0 927.7 -0.8 84
2019-11-19 23:00:00 5.7 3 Sur 11 Sur 0 928.1 -0.6 83
2019-11-19 22:00:00 5.9 5 Sur 9 Sur 0 928.4 -0.3 82
2019-11-19 21:00:00 5.6 2 Sudeste 5 Sudeste 0 928.5 -0.2 85
2019-11-19 20:00:00 5.7 3 Sudeste 6 Sudeste 0 928.7 -0.1 84
2019-11-19 19:00:00 5.6 3 Sur 7 Sudeste 0 928.7 -0.5 81
2019-11-19 18:00:00 6.5 4 Sur 8 Sur 0 928.7 -1 76
2019-11-19 17:00:00 7.4 2 Sudoeste 9 Sur 0 928.8 -1.5 74
2019-11-19 16:00:00 7.6 4 Sur 12 Sur 0 929.2 -1.8 73
2019-11-19 15:00:00 7.3 5 Sur 12 Sur 0 929.7 -2.1 74
2019-11-19 14:00:00 6.5 7 Sudoeste 14 Sudoeste 0 930.3 -1.8 76
2019-11-19 13:00:00 5.1 5 Sudoeste 10 Sudoeste 0 931 -1.1 81
2019-11-19 12:00:00 3 4 Sur 10 Sudoeste 0 931.8 -0.2 88
2019-11-19 11:00:00 1.9 4 Sudoeste 13 Sur 0 932.1 0.4 90
2019-11-19 10:00:00 0.7 3 Sudeste 8 Sur 0 932.1 0.3 97
2019-11-19 09:00:00 -0.3 0 Calma 4 Este 0 932 0.3 97
2019-11-19 08:00:00 -1.1 2 Norte 5 Norte 0 931.7 0 97
2019-11-19 07:00:00 -0.9 3 Norte 5 Norte 0 931.8 -0.2 97
2019-11-19 06:00:00 -0.6 2 Norte 4 Noroeste 0 931.7 -0.3 96
2019-11-19 05:00:00 -0.2 2 Norte 4 Nordeste 0 931.7 -0.5 95
2019-11-19 04:00:00 0.3 2 Norte 4 Nordeste 0 932 -0.3 94
2019-11-19 03:00:00 0.8 2 Nordeste 3 Nordeste 0 932 -0.8 93
2019-11-19 02:00:00 1.2 2 Noroeste 6 Oeste 0 932.2 -0.8 93
2019-11-19 01:00:00 1.8 3 Noroeste 5 Oeste 0 932.3 -0.5 92
2019-11-19 00:00:00 2.7 2 Norte 8 Este 0 932.8 0.5 90
2019-11-18 23:00:00 3.4 2 Nordeste 5 Sur 0 933 1.1 88
2019-11-18 22:00:00 4.7 3 Este 8 Este 0 932.8 1.3 84
2019-11-18 21:00:00 6 4 Este 12 Este 0 932.3 1.1 78
2019-11-18 20:00:00 6.4 2 Sur 8 Oeste 0 931.9 0.8 78
2019-11-18 19:00:00 7.2 5 Sudoeste 10 Sudoeste 0 931.5 0.8 72
2019-11-18 18:00:00 7.5 5 Sudoeste 12 Sur 0 931.2 0.5 70
2019-11-18 17:00:00 8.2 2 Noroeste 9 Nordeste 0 931.1 0.5 65
2019-11-18 16:00:00 9.1 4 Sudoeste 8 Norte 0 930.7 0 60
2019-11-18 15:00:00 8.8 3 Nordeste 12 Norte 0 930.7 -0.3 63
2019-11-18 14:00:00 9.2 6 Norte 15 Nordeste 0 930.6 -0.3 61
2019-11-18 13:00:00 8.4 5 Norte 16 Norte 0 930.7 0.2 67
2019-11-18 12:00:00 6.8 5 Noroeste 15 Norte 0 931 0.9 74
2019-11-18 11:00:00 4.9 3 Norte 6 Norte 0 930.9 1.8 83
2019-11-18 10:00:00 3.7 3 Sudeste 6 Sudeste 0 930.5 1.8 86
2019-11-18 09:00:00 1.1 2 Sur 7 Oeste 0 930.1 2 96
2019-11-18 08:00:00 0.8 6 Oeste 11 Oeste 0 929.1 1.5 96
2019-11-18 07:00:00 1 2 Sudoeste 5 Sudoeste 0 928.7 1.6 95
2019-11-18 06:00:00 1.3 4 Noroeste 10 Oeste 0 928.1 1.6 93
2019-11-18 05:00:00 2 3 Oeste 10 Norte 0 927.6 1 91
2019-11-18 04:00:00 2.7 4 Norte 28 Norte 0 927.1 1 89
2019-11-18 03:00:00 3.4 10 Noroeste 25 Norte 0 926.5 0.8 87
2019-11-18 02:00:00 3.4 5 Norte 20 Oeste 0 926.6 1.1 86
2019-11-18 01:00:00 4.3 7 Noroeste 21 Noroeste 0 926.1 1 80
2019-11-18 00:00:00 4.3 3 Oeste 17 Oeste 0 925.7 0.4 79
2019-11-17 23:00:00 4.4 9 Oeste 20 Oeste 0 925.5 1 79
2019-11-17 22:00:00 4.3 8 Oeste 20 Oeste 0 925.1 0.6 79
2019-11-17 21:00:00 4.7 4 Noroeste 19 Noroeste 0 925.3 1.5 75
2019-11-17 20:00:00 5.7 12 Noroeste 31 Noroeste 0 924.5 0.8 71
2019-11-17 19:00:00 6.9 13 Noroeste 29 Noroeste 0 924.5 0.4 73
2019-11-17 18:00:00 8.2 7 Noroeste 28 Oeste 0 923.8 -0.9 85
2019-11-17 17:00:00 9.7 17 Oeste 34 Oeste 0 923.7 -1.5 79
2019-11-17 16:00:00 10.1 16 Oeste 36 Oeste 0 924.1 -1.6 80
2019-11-17 15:00:00 9.1 15 Oeste 33 Oeste 0 924.7 -1.7 87
2019-11-17 14:00:00 8.4 16 Oeste 32 Oeste 0 925.2 -1.4 92
2019-11-17 13:00:00 7.6 16 Oeste 32 Sudoeste 0 925.7 -1.5 96
2019-11-17 12:00:00 6.1 6 Sudoeste 18 Sudoeste 0.2 926.4 -0.9 98
2019-11-17 11:00:00 5.1 6 Sur 16 Sur 1 926.6 -1 97
2019-11-17 10:00:00 4.4 5 Sudoeste 16 Sur 0 927.2 -0.5 97
2019-11-17 09:00:00 4.1 6 Sur 18 Sur 0 927.3 -0.9 95
2019-11-17 08:00:00 3.8 5 Sur 17 Sur 0 927.6 -0.8 94
2019-11-17 07:00:00 3.4 6 Sur 16 Sur 0 927.7 -1.3 90
2019-11-17 06:00:00 2.9 5 Sur 19 Sudoeste 0 928.2 -0.8 89
2019-11-17 05:00:00 2.7 11 Sudoeste 19 Sudoeste 0 928.4 -1 88
2019-11-17 04:00:00 3.3 8 Sudoeste 19 Sur 0 929 -0.4 85
2019-11-17 03:00:00 4.4 10 Oeste 27 Oeste 0 929 -0.9 81
2019-11-17 02:00:00 4 9 Sudoeste 21 Sudoeste 0 929.4 -0.6 83
2019-11-17 01:00:00 4 9 Sudoeste 17 Sudoeste 0 929.4 -0.7 80
2019-11-17 00:00:00 4.1 6 Sudoeste 14 Sur 0 929.9 0 79
2019-11-16 23:00:00 4 6 Sur 19 Sudoeste 0 930 0 79
2019-11-16 22:00:00 3.8 8 Oeste 22 Oeste 0 930.1 0.3 79
2019-11-16 21:00:00 4.1 11 Oeste 24 Oeste 0 929.9 0.4 75
2019-11-16 20:00:00 4.8 11 Oeste 25 Noroeste 0 930 0.9 70
2019-11-16 19:00:00 5 10 Oeste 20 Oeste 0 929.8 1 69
2019-11-16 18:00:00 5.9 4 Oeste 18 Oeste 0 929.5 0.8 62
2019-11-16 17:00:00 7.4 9 Oeste 21 Oeste 0 929.1 0.2 55
2019-11-16 16:00:00 8.6 9 Noroeste 26 Oeste 0 928.8 -0.2 54
2019-11-16 15:00:00 8.5 12 Oeste 27 Oeste 0 928.7 -1 55
2019-11-16 14:00:00 8.3 13 Oeste 27 Sudoeste 0 928.9 -0.2 63
2019-11-16 13:00:00 7.2 12 Sudoeste 25 Sudoeste 0 929 0.1 67
2019-11-16 12:00:00 4.2 7 Sudoeste 18 Sur 0 929.7 1.3 77
2019-11-16 11:00:00 2.2 9 Sur 16 Sur 0 929.1 1.4 85
2019-11-16 10:00:00 1 8 Sudoeste 15 Sudoeste 0 928.9 1.8 87
2019-11-16 09:00:00 -0.4 9 Sudoeste 14 Sudoeste 0 928.4 1.9 92
2019-11-16 08:00:00 -0.6 9 Sudoeste 15 Sur 0 927.7 1.5 92
2019-11-16 07:00:00 0.3 9 Sudoeste 14 Sudoeste 0 927.1 1.2 90
2019-11-16 06:00:00 0.2 3 Norte 14 Oeste 0 926.5 1.4 91
2019-11-16 05:00:00 0.3 3 Norte 13 Noroeste 0 926.2 1.6 90
2019-11-16 04:00:00 0.5 2 Norte 12 Nordeste 0 925.9 1.6 90
2019-11-16 03:00:00 1.4 3 Norte 17 Noroeste 0 925.1 1.1 87
2019-11-16 02:00:00 1.1 3 Norte 11 Norte 0 924.6 1.8 88
2019-11-16 01:00:00 1.6 6 Noroeste 19 Norte 0 924.3 2.1 85
2019-11-16 00:00:00 2.3 5 Norte 22 Noroeste 0 924 2.5 82
2019-11-15 23:00:00 2.9 13 Noroeste 30 Oeste 0 922.8 1.7 81
2019-11-15 22:00:00 3.7 13 Noroeste 33 Noroeste 0 922.2 1.8 77
2019-11-15 21:00:00 4.6 12 Noroeste 33 Noroeste 0 921.5 1.5 72
2019-11-15 20:00:00 4.6 10 Noroeste 26 Noroeste 0 921.1 1.4 71
2019-11-15 19:00:00 4.8 9 Noroeste 27 Noroeste 0 920.4 0.8 71
2019-11-15 18:00:00 5.6 12 Noroeste 31 Noroeste 0 920 0.5 66
2019-11-15 17:00:00 6.6 10 Noroeste 37 Noroeste 0 919.7 -0.1 63
2019-11-15 16:00:00 7.4 12 Noroeste 33 Noroeste 0 919.6 -0.6 60
2019-11-15 15:00:00 7.7 14 Noroeste 37 Noroeste 0 919.5 -1.3 57
2019-11-15 14:00:00 7.5 12 Noroeste 37 Oeste 0 919.8 -0.5 59
2019-11-15 13:00:00 7.1 14 Noroeste 36 Oeste 0 920.2 0 62
2019-11-15 12:00:00 6.3 13 Noroeste 33 Oeste 0 920.8 0.9 66
2019-11-15 11:00:00 5.1 15 Oeste 35 Oeste 0 920.3 1 71
2019-11-15 10:00:00 4.2 11 Noroeste 30 Noroeste 0 920.2 1.4 78
2019-11-15 09:00:00 2.6 9 Noroeste 26 Noroeste 0 919.9 1.1 84
2019-11-15 08:00:00 2.3 10 Oeste 24 Oeste 0 919.3 0.8 87
2019-11-15 07:00:00 2.5 11 Noroeste 29 Oeste 0 918.8 0.4 89
2019-11-15 06:00:00 2.4 9 Oeste 19 Oeste 0 918.8 0.5 89
2019-11-15 05:00:00 2.5 11 Sudoeste 23 Oeste 0 918.5 0 90
2019-11-15 04:00:00 2.8 8 Noroeste 21 Oeste 0 918.4 0.2 90
2019-11-15 03:00:00 2.7 12 Noroeste 32 Oeste 0 918.3 0.5 91
2019-11-15 02:00:00 2.9 10 Noroeste 27 Oeste 0 918.5 0.8 90
2019-11-15 01:00:00 2.9 15 Noroeste 37 Noroeste 0 918.2 1.3 89
2019-11-15 00:00:00 3.2 13 Noroeste 31 Noroeste 0 917.8 1.6 88
2019-11-14 23:00:00 3.3 10 Noroeste 29 Noroeste 0 917.7 2.3 88
2019-11-14 22:00:00 3.3 14 Noroeste 30 Noroeste 0 916.9 2 86
2019-11-14 21:00:00 3.4 13 Oeste 33 Oeste 0 916.2 2.4 86
2019-11-14 20:00:00 3.9 12 Noroeste 36 Noroeste 0 915.4 2.1 83
2019-11-14 19:00:00 4.2 11 Noroeste 40 Oeste 0 914.9 1.6 86
2019-11-14 18:00:00 4.5 15 Noroeste 36 Noroeste 0.4 913.8 -0.4 85
2019-11-14 17:00:00 4.3 22 Oeste 49 Oeste 0.2 913.3 -1.6 87
2019-11-14 16:00:00 4.2 24 Oeste 51 Oeste 0.6 913.3 -2.7 88
2019-11-14 15:00:00 4.2 22 Oeste 48 Oeste 0.4 914.2 -3.3 86
2019-11-14 14:00:00 6.2 20 Oeste 48 Sudoeste 0 914.9 -3.5 69
2019-11-14 13:00:00 6.3 20 Oeste 51 Sudoeste 0 916 -2.6 66
2019-11-14 12:00:00 5.4 15 Oeste 38 Oeste 0 917.5 -1.2 74
2019-11-14 11:00:00 4.4 17 Oeste 37 Oeste 0 918.4 -0.4 81
2019-11-14 10:00:00 4.1 19 Oeste 37 Oeste 0 918.6 -0.1 81
2019-11-14 09:00:00 3.1 12 Oeste 28 Noroeste 0 918.7 -0.1 75
2019-11-14 08:00:00 3.9 11 Noroeste 30 Oeste 0 918.8 0 78
2019-11-14 07:00:00 4.3 9 Noroeste 30 Oeste 0 918.7 0 85
2019-11-14 06:00:00 4.8 13 Noroeste 42 Norte 0.4 918.8 -1.1 83
2019-11-14 05:00:00 6.1 19 Noroeste 48 Oeste 0.8 918.8 -2.1 84
2019-11-14 04:00:00 7 21 Oeste 36 Oeste 1.4 918.7 -3.9 92
2019-11-14 03:00:00 7.8 15 Sudoeste 35 Sudoeste 0 919.9 -3.3 81
2019-11-14 02:00:00 7.5 16 Sudoeste 33 Sudoeste 0 920.9 -3.3 82
2019-11-14 01:00:00 7.8 12 Sudoeste 34 Sudoeste 0 922.6 -1.9 76
2019-11-14 00:00:00 8.2 14 Oeste 46 Oeste 0 923.2 -1.8 76
2019-11-13 23:00:00 8.4 27 Oeste 49 Oeste 0 924.2 -1.1 72
2019-11-13 22:00:00 8.7 18 Oeste 44 Sudoeste 0 924.5 -1.1 73
2019-11-13 21:00:00 9.4 19 Oeste 37 Sudoeste 0 925 -1.1 73
2019-11-13 20:00:00 10.5 15 Oeste 31 Sudoeste 0 925.3 -1 71
2019-11-13 19:00:00 11.6 17 Oeste 32 Sudoeste 0 925.6 -1 74
2019-11-13 18:00:00 12.5 5 Sudoeste 16 Sudoeste 0 926.1 -0.7 65
2019-11-13 17:00:00 13.2 10 Sudoeste 24 Oeste 0 926.3 -1 62
2019-11-13 16:00:00 13.9 12 Oeste 23 Oeste 0 926.6 -1.2 59
2019-11-13 15:00:00 14.1 10 Oeste 21 Oeste 0 926.8 -1.1 61
2019-11-13 14:00:00 13.3 10 Oeste 18 Oeste 0 927.3 -0.5 61
2019-11-13 13:00:00 12.4 5 Sudoeste 14 Sudeste 0 927.8 0.8 59
2019-11-13 12:00:00 10.6 4 Sudeste 14 Nordeste 0 927.9 2.3 71
2019-11-13 11:00:00 9.8 8 Este 19 Nordeste 0 927.8 3.6 76
2019-11-13 10:00:00 9.3 5 Nordeste 17 Nordeste 0 927 4.8 81
2019-11-13 09:00:00 8.3 6 Norte 19 Norte 0 925.6 4.3 88
2019-11-13 08:00:00 9 9 Norte 33 Noroeste 0 924.2 3.9 91
2019-11-13 07:00:00 10.4 8 Noroeste 32 Oeste 0 922.2 2 95
2019-11-13 06:00:00 11.1 14 Oeste 35 Noroeste 0 921.3 1.2 95
2019-11-13 05:00:00 11.2 18 Oeste 43 Oeste 0 920.3 -0.3 94
2019-11-13 04:00:00 11 20 Oeste 52 Oeste 0.2 920.2 -1.1 96
2019-11-13 03:00:00 10.7 18 Oeste 49 Oeste 1 920.1 -2 95
2019-11-13 02:00:00 10.3 21 Oeste 38 Sudoeste 1.6 920.6 -2.3 96
2019-11-13 01:00:00 9.9 17 Oeste 37 Oeste 1 921.3 -2.7 95
2019-11-13 00:00:00 9.3 14 Sudoeste 31 Oeste 0 922.1 -2.6 95
2019-11-12 23:00:00 8.6 8 Sudoeste 24 Sudoeste 0 922.9 -2.9 96
2019-11-12 22:00:00 8.1 8 Sudoeste 26 Sudoeste 1 924 -2.2 96
2019-11-12 21:00:00 7.9 7 Sudoeste 21 Sudoeste 0.8 924.7 -2 96
2019-11-12 20:00:00 7.9 6 Sudoeste 15 Sudoeste 0.8 925.8 -1.1 93
2019-11-12 19:00:00 8.4 8 Sudoeste 21 Oeste 0.4 926.2 -1.6 87
2019-11-12 18:00:00 9 8 Oeste 27 Sudoeste 0 926.7 -1.8 79
2019-11-12 17:00:00 9.9 9 Sudoeste 22 Sudoeste 0 926.9 -2.6 70
2019-11-12 16:00:00 10.4 11 Oeste 26 Sudoeste 0 927.8 -2.7 56
2019-11-12 15:00:00 10.7 10 Sudoeste 26 Oeste 0 928.5 -3.1 55
2019-11-12 14:00:00 10.4 14 Oeste 31 Sudoeste 0 929.5 -2.3 57
2019-11-12 13:00:00 10.3 12 Oeste 27 Noroeste 0 930.5 -1.4 59
2019-11-12 12:00:00 8.1 9 Sudoeste 19 Oeste 0 931.6 -0.3 71
2019-11-12 11:00:00 6.1 7 Sudoeste 12 Sur 0 931.8 0.5 80
2019-11-12 10:00:00 4.4 8 Sudoeste 15 Sudoeste 0 931.9 1.1 82
2019-11-12 09:00:00 3.5 5 Sur 14 Oeste 0 931.9 0.5 84
2019-11-12 08:00:00 4.1 5 Oeste 16 Oeste 0 931.3 -0.7 79
2019-11-12 07:00:00 3 5 Sudoeste 9 Sudoeste 0 930.8 -1.7 88
2019-11-12 06:00:00 3 3 Sudeste 7 Oeste 0 931.4 -1.4 88
2019-11-12 05:00:00 3.4 3 Oeste 7 Oeste 0 932 -0.9 87
2019-11-12 04:00:00 3.1 3 Sudoeste 7 Sudeste 0 932.5 -0.7 89
2019-11-12 03:00:00 3.2 4 Este 14 Sur 0 932.8 -0.7 87
2019-11-12 02:00:00 2.9 3 Sudoeste 9 Este 0 932.9 -0.8 87
2019-11-12 01:00:00 2.9 4 Oeste 9 Noroeste 0 933.2 0 86
2019-11-12 00:00:00 3.3 4 Noroeste 8 Oeste 0 933.5 0.4 83
2019-11-11 23:00:00 4.5 4 Noroeste 9 Este 0 933.7 0.7 82
2019-11-11 22:00:00 5.7 3 Nordeste 13 Norte 0 933.2 0.8 77
2019-11-11 21:00:00 6.3 4 Noroeste 12 Noroeste 0 933.1 1.1 86
2019-11-11 20:00:00 7.2 5 Oeste 6 Oeste 0 933 1.7 86
2019-11-11 19:00:00 8.7 3 Este 13 Este 0 932.4 1.6 80
2019-11-11 18:00:00 10.1 9 Este 34 Norte 0 932 1.6 76
2019-11-11 17:00:00 11.8 18 Norte 34 Norte 0 931.3 1 49
2019-11-11 16:00:00 12.7 11 Norte 29 Noroeste 0 930.8 0 56
2019-11-11 15:00:00 12.8 11 Norte 29 Norte 0 930.4 -0.8 65
2019-11-11 14:00:00 12.5 11 Noroeste 24 Noroeste 0 930.3 -0.4 74
2019-11-11 13:00:00 10.2 6 Oeste 14 Oeste 0 930.8 -0.3 91
2019-11-11 12:00:00 7.7 5 Sudeste 11 Sudoeste 0 931.2 -0.2 97
2019-11-11 11:00:00 6.6 5 Sur 11 Sudoeste 0 930.7 -0.3 98
2019-11-11 10:00:00 5.6 3 Sur 10 Sur 0 931.1 -0.1 98
2019-11-11 09:00:00 5 5 Sur 10 Sudoeste 0 931.4 -0.4 98
2019-11-11 08:00:00 4.6 6 Sur 12 Sur 0 931 -1 96
2019-11-11 07:00:00 4.3 8 Sur 14 Sur 0 931.2 -0.7 96
2019-11-11 06:00:00 4.1 3 Sudeste 11 Sur 0 931.8 -0.9 95
2019-11-11 05:00:00 3.9 4 Sur 11 Sur 0 932 -0.2 95
2019-11-11 04:00:00 4 4 Sur 9 Sudeste 0 931.9 -1.1 93
2019-11-11 03:00:00 4 3 Sudeste 14 Sudoeste 0 932.7 -0.7 90
2019-11-11 02:00:00 4.1 9 Sudoeste 15 Oeste 0 932.2 -0.9 89
2019-11-11 01:00:00 4.3 6 Oeste 14 Oeste 0 933 0.1 86
2019-11-11 00:00:00 4.4 4 Sudoeste 23 Oeste 0 933.4 0.6 84